Sim-Planet VA

Sim-Planet Nouvel Horizon. By: Anthony Pay
Since 2020.




 METAR ET TAF INFORMATION
METAR FOR LATI
ADDS - METARS form results

(0908 UTC 21 January 2022)
Data provider http://aviationweather.gov/metar/data/
 
METAR text: LATI 210850Z 33007KT 9999 -RA FEW010 BKN035 OVC045 07/07 Q1017 NOSIG
Conditions at: LATI (TIRANA , AL) observed 0850 UTC 21 January 2022
Temperature: 7.0°C (45°F)
Dewpoint: 7.0°C (45°F) [RH = 100%]
Pressure (altimeter): 30.03 inches Hg (1017.0 mb)
Winds: from the NNW (330 degrees) at 8 MPH (7 knots; 3.6 m/s)
Visibility: 6 or more miles (10+ km)
Ceiling: 3500 feet AGL
Clouds: few clouds at 1000 feet AGL
broken clouds at 3500 feet AGL
overcast cloud deck at 4500 feet AGL
Weather: -RA  (light rain)

METAR text: LATI 210820Z 28003KT 9999 -RA FEW001 BKN035 OVC045 07/06 Q1016 NOSIG
Conditions at: LATI (TIRANA , AL) observed 0820 UTC 21 January 2022
Temperature: 7.0°C (45°F)
Dewpoint: 6.0°C (43°F) [RH = 93%]
Pressure (altimeter): 30.00 inches Hg (1016.0 mb)
Winds: from the W (280 degrees) at 3 MPH (3 knots; 1.5 m/s)
Visibility: 6 or more miles (10+ km)
Ceiling: 3500 feet AGL
Clouds: few clouds at 100 feet AGL
broken clouds at 3500 feet AGL
overcast cloud deck at 4500 feet AGL
Weather: -RA  (light rain)

Forecast for: LATI (TIRANA , AL)
Text: TAF LATI 210500Z 2106/2206 VRB05KT 9999 -RA SCT030 BKN050 TX10/2110Z TNM04/2205Z
Forecast period: 0600 to 1200 UTC 21 January 2022
Forecast type: FROM: standard forecast or significant change
Winds: variable direction winds at 6 MPH (5 knots; 2.6 m/s)
Visibility: 6 or more miles (10+ km)
Ceiling: 5000 feet AGL
Clouds: scattered clouds at 3000 feet AGL
broken clouds at 5000 feet AGL
Weather: -RA  (light rain)
Text: PROB40
Forecast period: 0900 to 1300 UTC 21 January 2022
Forecast type: TEMPORARY: The following changes expected for less than half the time period
Visibility: 3 miles (5 km)
Ceiling: 3000 feet AGL
Clouds: scattered clouds at 2000 feet AGL
broken clouds at 3000 feet AGL
Weather: TSRA  (rain associated with thunderstorm(s))
Text: TEMPO 2109/2113 5000 TSRA SCT020CB BKN030
Forecast period: 1200 UTC 21 January 2022 to 0600 UTC 22 January 2022
Forecast type: BECOMING: Conditions expected to become as follows by 1400 UTC 21 January 2022
Winds: from the N (10 degrees) at 15 MPH (13 knots; 6.7 m/s)
Visibility: 6 or more miles (10+ km)
Ceiling: unknown
Clouds: missing
Weather: -RA  (light rain)

 AÉROPORT DE AÉROPORT

 INFORMATIONS DE PISTE
Piste 18 Longueur de la piste 8971 ft Largeur de la piste 148 ft
Élévation de la piste 109 ft Seuil de la piste déplacés 0 ft Runway heading 174
Piste 36 Longueur de la piste 8971 ft Largeur de la piste 148 ft
Élévation de la piste 126 ft Seuil de la piste déplacés 0 ft Runway heading 354

 AÉROPORT FRÉQUENCES
Type ACC Nom ACC Féquence 127.5 MHZ
Type APP Nom APP Féquence 133.15 MHZ
Type TWR Nom TWR Féquence 122.5 MHZ

 SIDA DE NAVIGATION
Type NDB Nom Tirana Féquence 290 KHZ
Type VOR-DME Nom Tirana Féquence 117700 KHZ

Nos Partenaires